createdAt,value
2019-06-27T00:01:16.867Z,12.03
2019-06-27T00:03:46.183Z,12.67
2019-06-27T00:06:15.199Z,12.30
2019-06-27T00:08:43.999Z,12.37
2019-06-27T00:11:15.745Z,11.67
2019-06-27T00:13:45.299Z,11.57
2019-06-27T00:16:14.308Z,12.53
2019-06-27T00:18:43.896Z,12.40
2019-06-27T00:21:12.475Z,11.90
2019-06-27T00:23:41.166Z,12.20
2019-06-27T00:26:10.852Z,11.90
2019-06-27T00:28:39.567Z,11.33
2019-06-27T00:31:08.507Z,11.63
2019-06-27T00:33:39.195Z,11.33
2019-06-27T00:36:08.713Z,12.20
2019-06-27T00:38:37.697Z,12.00
2019-06-27T00:41:06.671Z,11.30
2019-06-27T00:43:35.577Z,11.83
2019-06-27T00:46:05.133Z,11.47
2019-06-27T00:48:34.799Z,12.00
2019-06-27T00:51:03.737Z,12.70
2019-06-27T00:53:33.357Z,11.13
2019-06-27T00:56:02.689Z,11.73
2019-06-27T00:58:31.636Z,11.03
2019-06-27T01:01:00.235Z,11.10
2019-06-27T01:03:30.590Z,11.57
2019-06-27T01:05:59.220Z,11.83
2019-06-27T01:08:28.170Z,11.43
2019-06-27T01:10:57.753Z,10.83
2019-06-27T01:13:26.771Z,10.23
2019-06-27T01:15:55.820Z,10.90
2019-06-27T01:18:25.514Z,10.33
2019-06-27T01:20:56.157Z,10.23
2019-06-27T01:23:25.781Z,10.13
2019-06-27T01:25:55.851Z,10.07
2019-06-27T01:28:24.725Z,10.97
2019-06-27T01:30:53.841Z,10.40
2019-06-27T01:33:22.853Z,9.53
2019-06-27T01:35:51.871Z,10.70
2019-06-27T01:38:21.371Z,10.80
2019-06-27T01:40:50.292Z,10.67
2019-06-27T01:43:20.255Z,10.13
2019-06-27T01:45:51.515Z,10.57
2019-06-27T01:48:21.364Z,11.27
2019-06-27T01:50:50.324Z,11.23
2019-06-27T01:53:21.559Z,10.83
2019-06-27T01:55:51.179Z,11.27
2019-06-27T01:58:20.230Z,11.33
2019-06-27T02:00:50.428Z,10.23
2019-06-27T02:03:20.803Z,12.97
2019-06-27T02:05:49.445Z,10.90
2019-06-27T02:08:19.017Z,10.67
2019-06-27T02:10:49.172Z,10.70
2019-06-27T02:13:19.392Z,11.20
2019-06-27T02:15:48.456Z,11.00
2019-06-27T02:18:17.110Z,11.23
2019-06-27T02:20:47.361Z,10.93
2019-06-27T02:23:16.631Z,10.70
2019-06-27T02:25:45.542Z,10.77
2019-06-27T02:28:14.499Z,10.47
2019-06-27T02:30:45.076Z,10.77
2019-06-27T02:33:14.740Z,10.20
2019-06-27T02:35:44.166Z,10.70
2019-06-27T02:38:13.950Z,11.17
2019-06-27T02:40:42.610Z,11.13
2019-06-27T02:43:14.049Z,12.63
2019-06-27T02:45:43.483Z,12.00
2019-06-27T02:48:13.013Z,9.87
2019-06-27T02:50:42.103Z,11.33
2019-06-27T02:53:10.952Z,12.73
2019-06-27T02:55:39.997Z,13.07
2019-06-27T02:58:28.926Z,10.47
2019-06-27T03:00:39.761Z,12.37
2019-06-27T03:03:09.601Z,12.27
2019-06-27T03:05:40.121Z,11.03
2019-06-27T03:08:09.152Z,10.40
2019-06-27T03:10:38.216Z,11.20
2019-06-27T03:13:07.835Z,10.60
2019-06-27T03:15:37.127Z,10.63
2019-06-27T03:18:06.180Z,14.33
2019-06-27T03:20:37.437Z,11.67
2019-06-27T03:23:06.953Z,10.83
2019-06-27T03:25:38.055Z,11.10
2019-06-27T03:28:06.699Z,12.43
2019-06-27T03:30:35.443Z,11.90
2019-06-27T03:33:04.141Z,10.50
2019-06-27T03:35:32.784Z,11.80
2019-06-27T03:38:01.661Z,11.10
2019-06-27T03:40:30.298Z,9.77
2019-06-27T03:42:58.981Z,10.37
2019-06-27T03:45:27.693Z,9.87
2019-06-27T03:47:56.331Z,10.37
2019-06-27T03:50:25.006Z,9.47
2019-06-27T03:52:54.431Z,10.13
2019-06-27T03:55:23.002Z,10.60
2019-06-27T03:57:51.629Z,11.53
2019-06-27T04:00:23.202Z,13.73
2019-06-27T04:02:51.827Z,14.10
2019-06-27T04:05:20.502Z,17.13
2019-06-27T04:07:49.139Z,15.43
2019-06-27T04:10:18.012Z,17.60
2019-06-27T04:12:46.771Z,19.40
2019-06-27T04:15:15.408Z,20.37
2019-06-27T04:17:44.053Z,19.83
2019-06-27T04:20:12.893Z,19.27
2019-06-27T04:22:41.530Z,19.87
2019-06-27T04:25:11.215Z,20.83
2019-06-27T04:27:39.946Z,20.03
2019-06-27T04:30:09.103Z,18.97
2019-06-27T04:32:39.277Z,17.00
2019-06-27T04:35:08.225Z,16.00
2019-06-27T04:37:37.684Z,15.57
2019-06-27T04:40:06.732Z,15.97
2019-06-27T04:42:35.388Z,14.40
2019-06-27T04:45:05.580Z,14.47
2019-06-27T04:47:34.203Z,15.13
2019-06-27T04:50:02.852Z,14.83
2019-06-27T04:52:32.853Z,13.93
2019-06-27T04:55:03.520Z,13.63
2019-06-27T04:57:31.799Z,13.90
2019-06-27T05:00:00.377Z,13.10
2019-06-27T05:02:30.662Z,13.30
2019-06-27T05:04:59.439Z,13.37
2019-06-27T05:07:28.088Z,14.77
2019-06-27T05:09:56.655Z,14.87
2019-06-27T05:12:26.887Z,15.63
2019-06-27T05:14:55.523Z,15.33
2019-06-27T05:17:24.161Z,14.87
2019-06-27T05:19:52.901Z,15.37
2019-06-27T05:22:21.471Z,15.73
2019-06-27T05:24:50.333Z,15.90
2019-06-27T05:27:19.075Z,16.27
2019-06-27T05:29:47.719Z,16.67
2019-06-27T05:32:17.121Z,17.07
2019-06-27T05:34:45.756Z,17.00
2019-06-27T05:37:14.394Z,17.00
2019-06-27T05:39:42.968Z,16.93
2019-06-27T05:42:11.584Z,16.30
2019-06-27T05:44:41.163Z,17.83
2019-06-27T05:47:09.797Z,15.87
2019-06-27T05:49:38.361Z,17.20
2019-06-27T05:52:07.394Z,16.43
2019-06-27T05:54:35.942Z,15.93
2019-06-27T05:57:04.594Z,15.87
2019-06-27T05:59:33.465Z,16.23
2019-06-27T06:02:02.177Z,16.13
2019-06-27T06:04:30.871Z,16.83
2019-06-27T06:06:59.516Z,14.67
2019-06-27T06:09:28.143Z,14.50
2019-06-27T06:11:56.823Z,14.67
2019-06-27T06:14:25.456Z,15.07
2019-06-27T06:16:54.019Z,15.67
2019-06-27T06:19:22.662Z,16.37
2019-06-27T06:21:51.306Z,15.63
2019-06-27T06:24:20.541Z,16.03
2019-06-27T06:26:49.181Z,24.40
2019-06-27T06:29:17.815Z,18.33
2019-06-27T06:31:49.207Z,18.70
2019-06-27T06:34:16.815Z,17.80
2019-06-27T06:36:45.446Z,18.83
2019-06-27T06:39:14.901Z,18.70
2019-06-27T06:41:43.529Z,19.43
2019-06-27T06:44:12.088Z,17.27
2019-06-27T06:46:40.785Z,17.77
2019-06-27T06:49:09.424Z,19.77
2019-06-27T06:51:38.058Z,21.57
2019-06-27T06:54:08.531Z,21.20
2019-06-27T06:56:37.162Z,18.87
2019-06-27T06:59:05.834Z,18.67
2019-06-27T07:01:34.457Z,19.43
2019-06-27T07:04:03.096Z,18.53
2019-06-27T07:06:31.787Z,17.57
2019-06-27T07:09:00.413Z,17.17
2019-06-27T07:11:29.053Z,15.07
2019-06-27T07:13:57.753Z,14.63
2019-06-27T07:16:26.438Z,14.50
2019-06-27T07:18:55.080Z,13.53
2019-06-27T07:21:23.652Z,14.17
2019-06-27T07:23:52.305Z,16.13
2019-06-27T07:26:22.405Z,12.20
2019-06-27T07:28:51.421Z,10.33
2019-06-27T07:31:20.082Z,7.53
2019-06-27T07:33:49.661Z,10.13
2019-06-27T07:36:18.305Z,11.40
2019-06-27T07:38:47.452Z,12.00
2019-06-27T07:41:16.161Z,9.87
2019-06-27T07:43:44.791Z,5.77
2019-06-27T07:46:24.442Z,5.73
2019-06-27T07:48:44.344Z,6.80
2019-06-27T07:51:12.978Z,6.23
2019-06-27T07:53:41.629Z,5.87
2019-06-27T07:56:10.265Z,6.67
2019-06-27T07:58:39.297Z,7.77
2019-06-27T08:01:08.037Z,6.73
2019-06-27T08:03:36.542Z,8.97
2019-06-27T08:06:05.378Z,7.47
2019-06-27T08:08:33.904Z,7.00
2019-06-27T08:11:02.537Z,11.70
2019-06-27T08:13:31.642Z,12.13
2019-06-27T08:16:00.265Z,5.13
2019-06-27T08:18:28.948Z,5.07
2019-06-27T08:20:57.587Z,5.03
2019-06-27T08:23:40.540Z,5.50
2019-06-27T08:25:56.710Z,5.33
2019-06-27T08:28:25.336Z,4.77
2019-06-27T08:30:53.897Z,4.53
2019-06-27T08:33:22.598Z,4.40
2019-06-27T08:35:51.230Z,5.00
2019-06-27T08:38:19.877Z,4.50
2019-06-27T08:40:48.421Z,4.57
2019-06-27T08:43:16.979Z,4.13
2019-06-27T08:45:45.658Z,4.43
2019-06-27T08:48:14.281Z,4.23
2019-06-27T08:50:42.832Z,3.70
2019-06-27T08:53:16.046Z,3.27
2019-06-27T08:55:44.686Z,3.42
2019-06-27T08:58:13.311Z,4.28
2019-06-27T09:00:44.931Z,3.80
2019-06-27T09:03:12.264Z,3.70
2019-06-27T09:05:40.907Z,2.98
2019-06-27T09:08:09.578Z,3.70
2019-06-27T09:10:38.205Z,3.45
2019-06-27T09:13:06.902Z,2.95
2019-06-27T09:15:35.560Z,3.08
2019-06-27T09:18:04.291Z,3.07
2019-06-27T09:20:32.937Z,3.30
2019-06-27T09:23:01.511Z,3.70
2019-06-27T09:25:30.874Z,4.03
2019-06-27T09:27:59.496Z,3.70
2019-06-27T09:30:28.184Z,3.80
2019-06-27T09:32:57.657Z,3.05
2019-06-27T09:35:26.332Z,3.23
2019-06-27T09:37:55.027Z,2.92
2019-06-27T09:40:24.006Z,3.05
2019-06-27T09:42:54.097Z,2.93
2019-06-27T09:45:23.223Z,2.73
2019-06-27T09:47:52.829Z,2.93
2019-06-27T09:50:22.362Z,3.60
2019-06-27T09:52:50.981Z,3.10
2019-06-27T09:55:20.566Z,3.98
2019-06-27T09:57:49.352Z,3.30
2019-06-27T10:00:19.685Z,3.47
2019-06-27T10:02:48.336Z,3.10
2019-06-27T10:05:17.211Z,3.10
2019-06-27T10:07:45.889Z,2.90
2019-06-27T10:10:16.160Z,3.72
2019-06-27T10:12:44.819Z,2.80
2019-06-27T10:15:13.968Z,2.30
2019-06-27T10:17:42.584Z,2.90
2019-06-27T10:20:11.299Z,3.00
2019-06-27T10:22:39.969Z,2.90
2019-06-27T10:25:09.665Z,2.90
2019-06-27T10:27:38.302Z,2.35
2019-06-27T10:30:08.240Z,2.20
2019-06-27T10:32:36.874Z,2.40
2019-06-27T10:35:10.172Z,2.60
2019-06-27T10:37:38.808Z,2.70
2019-06-27T10:40:08.439Z,2.50
2019-06-27T10:42:37.011Z,3.17
2019-06-27T10:45:07.611Z,3.03
2019-06-27T10:47:36.260Z,2.90
2019-06-27T10:50:05.982Z,3.20
2019-06-27T10:52:34.556Z,3.23
2019-06-27T10:55:03.950Z,3.40
2019-06-27T10:57:32.566Z,3.47
2019-06-27T11:00:01.202Z,3.40
2019-06-27T11:02:29.841Z,4.33
2019-06-27T11:04:58.480Z,3.40
2019-06-27T11:07:27.888Z,3.70
2019-06-27T11:09:56.449Z,3.33
2019-06-27T11:12:25.012Z,3.77
2019-06-27T11:14:58.986Z,4.30
2019-06-27T11:17:24.536Z,3.90
2019-06-27T11:19:53.121Z,4.03
2019-06-27T11:22:21.735Z,4.27
2019-06-27T11:24:50.349Z,5.50
2019-06-27T11:27:19.031Z,4.77
2019-06-27T11:29:47.635Z,4.37
2019-06-27T11:32:16.259Z,4.37
2019-06-27T11:34:44.864Z,4.23
2019-06-27T11:37:13.424Z,8.93
2019-06-27T11:39:42.057Z,13.37
2019-06-27T11:42:12.284Z,4.60
2019-06-27T11:44:40.915Z,5.40
2019-06-27T11:47:10.776Z,4.80
2019-06-27T11:49:39.455Z,4.83
2019-06-27T11:52:08.097Z,4.90
2019-06-27T11:54:38.974Z,5.70
2019-06-27T11:57:07.702Z,4.90
2019-06-27T11:59:36.353Z,4.53
2019-06-27T12:02:05.151Z,4.97
2019-06-27T12:04:33.760Z,4.30
2019-06-27T12:07:02.952Z,4.80
2019-06-27T12:09:31.689Z,6.93
2019-06-27T12:12:00.312Z,5.27
2019-06-27T12:14:29.480Z,4.73
2019-06-27T12:16:58.200Z,5.17
2019-06-27T12:19:26.838Z,5.20
2019-06-27T12:21:55.484Z,5.10
2019-06-27T12:24:24.122Z,5.00
2019-06-27T12:26:54.460Z,4.83
2019-06-27T12:29:23.093Z,5.30
2019-06-27T12:31:51.947Z,5.40
2019-06-27T12:34:21.194Z,5.57
2019-06-27T12:36:49.820Z,5.40
2019-06-27T12:39:18.465Z,6.33
2019-06-27T12:41:47.174Z,5.90
2019-06-27T12:44:15.832Z,5.73
2019-06-27T12:46:44.510Z,5.03
2019-06-27T12:49:13.078Z,8.97
2019-06-27T12:51:41.707Z,5.57
2019-06-27T12:54:10.494Z,5.47
2019-06-27T12:56:39.149Z,5.40
2019-06-27T12:59:07.789Z,6.40
2019-06-27T13:01:37.302Z,5.13
2019-06-27T13:04:19.104Z,5.40
2019-06-27T13:06:36.312Z,5.17
2019-06-27T13:09:05.987Z,5.03
2019-06-27T13:11:34.635Z,5.50
2019-06-27T13:14:03.204Z,5.93
2019-06-27T13:16:32.652Z,5.00
2019-06-27T13:19:01.270Z,5.20
2019-06-27T13:21:29.908Z,5.10
2019-06-27T13:23:58.541Z,5.47
2019-06-27T13:26:27.171Z,7.83
2019-06-27T13:28:55.853Z,6.97
2019-06-27T13:31:24.492Z,5.90
2019-06-27T13:33:53.130Z,6.47
2019-06-27T13:36:21.775Z,7.93
2019-06-27T13:38:50.398Z,8.50
2019-06-27T13:41:19.041Z,6.30
2019-06-27T13:43:49.315Z,5.87
2019-06-27T13:46:18.180Z,5.83
2019-06-27T13:48:46.807Z,6.23
2019-06-27T13:51:15.428Z,5.13
2019-06-27T13:53:44.114Z,5.67
2019-06-27T13:56:13.579Z,5.40
2019-06-27T13:58:42.281Z,5.40
2019-06-27T14:01:11.161Z,6.07
2019-06-27T14:03:49.319Z,5.37
2019-06-27T14:06:10.194Z,6.00
2019-06-27T14:08:39.691Z,7.77
2019-06-27T14:11:08.328Z,5.77
2019-06-27T14:13:36.980Z,6.00
2019-06-27T14:16:07.278Z,5.83
2019-06-27T14:18:35.896Z,6.10
2019-06-27T14:21:04.540Z,6.07
2019-06-27T14:23:33.106Z,6.40
2019-06-27T14:26:01.749Z,5.40
2019-06-27T14:28:30.433Z,5.60
2019-06-27T14:30:59.082Z,8.07
2019-06-27T14:33:27.712Z,6.23
2019-06-27T14:35:57.985Z,6.43
2019-06-27T14:38:27.650Z,5.60
2019-06-27T14:40:58.933Z,5.73
2019-06-27T14:43:27.644Z,7.63
2019-06-27T14:45:56.271Z,8.30
2019-06-27T14:48:24.945Z,6.47
2019-06-27T14:50:53.504Z,5.57
2019-06-27T14:53:22.159Z,8.03
2019-06-27T14:55:51.577Z,7.30
2019-06-27T14:58:20.227Z,6.57
2019-06-27T15:00:48.918Z,6.37
2019-06-27T15:03:17.574Z,5.30
2019-06-27T15:05:46.274Z,7.90
2019-06-27T15:08:16.626Z,15.53
2019-06-27T15:10:45.261Z,7.53
2019-06-27T15:13:13.920Z,6.17
2019-06-27T15:15:44.596Z,6.23
2019-06-27T15:18:16.570Z,7.43
2019-06-27T15:20:44.012Z,6.30
2019-06-27T15:23:12.651Z,6.40
2019-06-27T15:25:42.070Z,7.90
2019-06-27T15:28:10.745Z,5.87
2019-06-27T15:30:39.458Z,6.83
2019-06-27T15:33:09.171Z,6.83
2019-06-27T15:35:51.662Z,5.90
2019-06-27T15:38:09.747Z,5.90
2019-06-27T15:40:38.384Z,5.30
2019-06-27T15:43:07.040Z,5.63
2019-06-27T15:45:35.673Z,6.10
2019-06-27T15:48:04.432Z,5.70
2019-06-27T15:50:33.005Z,6.10
2019-06-27T15:53:01.707Z,7.63
2019-06-27T15:55:31.285Z,7.00
2019-06-27T15:57:59.841Z,7.17
2019-06-27T16:00:28.482Z,8.23
2019-06-27T16:02:57.117Z,8.17
2019-06-27T16:05:25.859Z,8.20
2019-06-27T16:07:54.604Z,7.60
2019-06-27T16:10:23.938Z,6.80
2019-06-27T16:12:52.571Z,10.67
2019-06-27T16:15:21.241Z,7.20
2019-06-27T16:17:49.870Z,6.77
2019-06-27T16:20:20.487Z,7.17
2019-06-27T16:22:49.120Z,7.60
2019-06-27T16:25:18.050Z,6.60
2019-06-27T16:27:46.673Z,7.60
2019-06-27T16:30:15.854Z,9.93
2019-06-27T16:32:44.499Z,7.47
2019-06-27T16:35:13.216Z,7.80
2019-06-27T16:37:42.466Z,8.97
2019-06-27T16:40:11.601Z,8.60
2019-06-27T16:42:40.248Z,10.13
2019-06-27T16:45:10.602Z,7.50
2019-06-27T16:47:39.236Z,8.23
2019-06-27T16:50:10.688Z,9.00
2019-06-27T16:52:39.343Z,8.37
2019-06-27T16:55:08.875Z,8.20
2019-06-27T16:57:38.911Z,8.80
2019-06-27T17:00:09.015Z,8.83
2019-06-27T17:02:37.707Z,10.17
2019-06-27T17:05:06.751Z,9.20
2019-06-27T17:07:35.396Z,8.30
2019-06-27T17:10:05.875Z,9.40
2019-06-27T17:12:34.510Z,8.80
2019-06-27T17:15:03.548Z,8.20
2019-06-27T17:17:32.235Z,8.50
2019-06-27T17:20:00.876Z,8.23
2019-06-27T17:22:29.510Z,9.03
2019-06-27T17:24:58.269Z,7.27
2019-06-27T17:27:26.999Z,11.17
2019-06-27T17:29:55.795Z,11.13
2019-06-27T17:32:24.378Z,12.47
2019-06-27T17:34:53.156Z,10.53
2019-06-27T17:37:22.313Z,17.37
2019-06-27T17:39:50.986Z,10.93
2019-06-27T17:42:20.268Z,10.40
2019-06-27T17:44:50.403Z,8.40
2019-06-27T17:47:19.028Z,9.60
2019-06-27T17:49:49.157Z,28.00
2019-06-27T17:52:18.083Z,15.37
2019-06-27T17:54:46.720Z,10.13
2019-06-27T17:57:15.419Z,7.53
2019-06-27T17:59:43.996Z,7.60
2019-06-27T18:02:12.614Z,9.13
2019-06-27T18:04:41.272Z,8.33
2019-06-27T18:07:14.784Z,14.63
2019-06-27T18:09:42.058Z,9.23
2019-06-27T18:12:11.224Z,10.33
2019-06-27T18:14:39.863Z,24.57
2019-06-27T18:17:09.341Z,46.30
2019-06-27T18:19:37.998Z,19.10
2019-06-27T18:22:06.624Z,20.37
2019-06-27T18:24:35.272Z,15.53
2019-06-27T18:27:03.834Z,12.80
2019-06-27T18:29:32.990Z,10.50
2019-06-27T18:32:01.699Z,10.87
2019-06-27T18:34:30.262Z,11.67
2019-06-27T18:36:59.318Z,11.57
2019-06-27T18:39:27.961Z,20.37
2019-06-27T18:41:56.678Z,38.50
2019-06-27T18:44:25.416Z,16.20
2019-06-27T18:46:54.068Z,18.87
2019-06-27T18:49:22.949Z,16.17
2019-06-27T18:51:51.620Z,13.63
2019-06-27T18:54:20.306Z,13.97
2019-06-27T18:56:49.133Z,14.33
2019-06-27T18:59:17.905Z,14.10
2019-06-27T19:01:46.540Z,13.33
2019-06-27T19:04:15.357Z,10.97
2019-06-27T19:06:44.275Z,42.17
2019-06-27T19:09:13.030Z,107.17
2019-06-27T19:11:41.657Z,25.77
2019-06-27T19:14:10.298Z,14.40
2019-06-27T19:16:38.977Z,14.30
2019-06-27T19:19:09.251Z,13.60
2019-06-27T19:21:42.661Z,11.63
2019-06-27T19:24:15.927Z,12.30
2019-06-27T19:26:45.635Z,11.60
2019-06-27T19:29:14.266Z,11.53
2019-06-27T19:31:42.976Z,12.10
2019-06-27T19:34:11.612Z,21.17
2019-06-27T19:36:40.345Z,10.60
2019-06-27T19:39:08.991Z,10.37
2019-06-27T19:41:37.688Z,10.20
2019-06-27T19:44:06.512Z,9.63
2019-06-27T19:46:35.110Z,11.47
2019-06-27T19:49:03.850Z,10.73
2019-06-27T19:51:34.034Z,11.70
2019-06-27T19:54:02.606Z,10.60
2019-06-27T19:56:31.256Z,10.67
2019-06-27T19:59:00.675Z,10.30
2019-06-27T20:01:29.308Z,9.97
2019-06-27T20:03:57.966Z,10.63
2019-06-27T20:06:26.601Z,10.63
2019-06-27T20:08:55.233Z,9.80
2019-06-27T20:11:23.920Z,11.07
2019-06-27T20:13:52.559Z,10.53
2019-06-27T20:16:22.143Z,10.47
2019-06-27T20:18:51.090Z,10.20
2019-06-27T20:21:19.727Z,10.60
2019-06-27T20:23:48.374Z,10.40
2019-06-27T20:26:17.032Z,10.03
2019-06-27T20:28:45.654Z,9.50
2019-06-27T20:31:15.217Z,9.90
2019-06-27T20:33:43.796Z,10.43
2019-06-27T20:36:12.438Z,9.23
2019-06-27T20:38:41.143Z,10.50
2019-06-27T20:41:09.780Z,9.77
2019-06-27T20:43:38.409Z,10.27
2019-06-27T20:46:07.047Z,11.23
2019-06-27T20:48:35.683Z,10.30
2019-06-27T20:51:04.350Z,9.97
2019-06-27T20:53:32.986Z,10.10
2019-06-27T20:56:01.620Z,10.10
2019-06-27T20:58:31.963Z,10.30
2019-06-27T21:01:00.604Z,9.73
2019-06-27T21:03:29.257Z,10.80
2019-06-27T21:05:57.882Z,10.50
2019-06-27T21:08:26.446Z,10.53
2019-06-27T21:10:55.999Z,10.57
2019-06-27T21:13:24.643Z,10.33
2019-06-27T21:15:53.272Z,10.80
2019-06-27T21:18:22.037Z,11.03
2019-06-27T21:20:50.668Z,10.60
2019-06-27T21:23:19.305Z,11.20
2019-06-27T21:25:47.917Z,10.77
2019-06-27T21:28:16.551Z,10.83
2019-06-27T21:30:46.134Z,11.53
2019-06-27T21:33:14.850Z,10.50
2019-06-27T21:35:43.549Z,10.87
2019-06-27T21:38:12.160Z,10.90
2019-06-27T21:40:40.795Z,11.03
2019-06-27T21:43:09.443Z,10.87
2019-06-27T21:45:38.088Z,10.93
2019-06-27T21:48:06.737Z,12.53
2019-06-27T21:50:36.915Z,10.50
2019-06-27T21:53:05.550Z,10.70
2019-06-27T21:55:34.181Z,10.23
2019-06-27T21:58:02.871Z,11.70
2019-06-27T22:00:33.147Z,11.67
2019-06-27T22:03:01.807Z,11.10
2019-06-27T22:05:30.566Z,12.17
2019-06-27T22:07:59.205Z,12.03
2019-06-27T22:10:27.887Z,11.57
2019-06-27T22:12:56.582Z,11.77
2019-06-27T22:15:25.350Z,11.57
2019-06-27T22:17:54.301Z,11.10
2019-06-27T22:20:23.830Z,11.27
2019-06-27T22:22:52.477Z,11.67
2019-06-27T22:25:21.118Z,11.47
2019-06-27T22:27:49.749Z,11.77
2019-06-27T22:30:19.605Z,12.00
2019-06-27T22:32:48.255Z,12.37
2019-06-27T22:35:17.503Z,12.83
2019-06-27T22:38:04.280Z,12.47
2019-06-27T22:40:50.713Z,12.43
2019-06-27T22:43:37.334Z,12.17
2019-06-27T22:46:24.006Z,12.43
2019-06-27T22:48:52.886Z,12.70
2019-06-27T22:51:40.318Z,13.17
2019-06-27T22:54:13.249Z,13.13
2019-06-27T22:56:41.890Z,13.20
2019-06-27T22:59:10.542Z,13.70
2019-06-27T23:32:20.018Z,13.50
2019-06-27T23:34:48.648Z,12.87
2019-06-27T23:37:17.307Z,13.33
2019-06-27T23:39:45.993Z,11.97
2019-06-27T23:42:14.553Z,12.27
2019-06-27T23:44:43.187Z,12.83
2019-06-27T23:47:11.827Z,12.93
2019-06-27T23:49:40.533Z,13.07
2019-06-27T23:52:09.869Z,12.30
2019-06-27T23:54:38.440Z,12.27
2019-06-27T23:57:07.010Z,13.27
2019-06-27T23:59:35.692Z,13.10
